KCDH

Harrell Field Airport

Camden, Arkansas, USA
METAR KCDH 210715Z AUTO 00000KT 5SM BR BKN060 BKN075 22/21 A2999 RMK AO2
Observed Flight Rules
May-21 @ 07:15 UTC (7 minutes ago) Marginal Visual Flight Rules
Visibility Clouds Conditions
5 miles
  • Broken at 6,000' AGL
  • Broken at 7,500' AGL
  • Mist
Temperatures Readings
Current 22°C / 72°F
Dewpoint 21°C / 70°F
Humidity 94%
Altimeter 29.99" Hg
Pressure 1016 hPa
Elevation 35
METAR KCDH 210715Z AUTO 00000KT 5SM BR BKN060 BKN075 22/21 A2999 RMK AO2
Observed Flight Rules
May-21 @ 07:15 UTC
(7 minutes ago)
MVFR
Clouds
  • Broken at 6,000' AGL
  • Broken at 7,500' AGL
Conditions
  • Mist
Temperature Dewpoint
22°C / 72°F 21°C / 70°F
Humidity Altimeter Pressure
94% 29.99" Hg 1016 hPa